createdAt,value
2022-11-25T00:01:23.739Z,96486.41
2022-11-25T00:03:52.730Z,96475.47
2022-11-25T00:06:30.616Z,96479.56
2022-11-25T00:09:01.371Z,96484.41
2022-11-25T00:11:29.149Z,96485.06
2022-11-25T00:13:57.640Z,96484.00
2022-11-25T00:16:26.652Z,96492.03
2022-11-25T00:18:55.653Z,96497.09
2022-11-25T00:21:26.119Z,96492.66
2022-11-25T00:23:56.059Z,96495.59
2022-11-25T00:26:24.405Z,96504.66
2022-11-25T00:28:52.082Z,96507.78
2022-11-25T00:31:22.963Z,96509.56
2022-11-25T00:33:50.587Z,96503.41
2022-11-25T00:36:21.266Z,96511.19
2022-11-25T00:38:53.653Z,96508.38
2022-11-25T00:41:38.867Z,96501.19
2022-11-25T00:44:24.509Z,96508.44
2022-11-25T00:46:51.289Z,96498.63
2022-11-25T00:49:18.096Z,96504.00
2022-11-25T00:51:44.987Z,96504.44
2022-11-25T00:54:12.260Z,96503.91
2022-11-25T00:56:39.249Z,96500.78
2022-11-25T00:59:06.170Z,96490.69
2022-11-25T01:01:33.556Z,96498.34
2022-11-25T01:04:00.440Z,96494.25
2022-11-25T01:06:27.281Z,96493.53
2022-11-25T01:08:54.481Z,96488.75
2022-11-25T01:11:23.152Z,96489.44
2022-11-25T01:13:50.713Z,96484.47
2022-11-25T01:16:19.996Z,96487.56
2022-11-25T01:18:47.813Z,96484.97
2022-11-25T01:21:22.363Z,96494.25
2022-11-25T01:23:50.088Z,96490.69
2022-11-25T01:26:23.799Z,96494.72
2022-11-25T01:28:56.758Z,96491.28
2022-11-25T01:31:26.165Z,96496.50
2022-11-25T01:34:03.172Z,96503.59
2022-11-25T01:36:30.823Z,96501.31
2022-11-25T01:39:00.169Z,96496.13
2022-11-25T01:41:30.586Z,96495.13
2022-11-25T01:44:14.568Z,96495.13
2022-11-25T01:46:56.144Z,96498.41
2022-11-25T01:49:44.873Z,96494.03
2022-11-25T01:52:29.805Z,96494.16
2022-11-25T01:55:14.743Z,96489.94
2022-11-25T01:57:48.781Z,96489.28
2022-11-25T02:00:17.044Z,96484.22
2022-11-25T02:02:44.550Z,96495.13
2022-11-25T02:05:23.182Z,96480.53
2022-11-25T02:07:52.937Z,96477.25
2022-11-25T02:10:27.679Z,96483.41
2022-11-25T02:12:54.998Z,96479.31
2022-11-25T02:15:22.368Z,96478.81
2022-11-25T02:17:49.726Z,96483.75
2022-11-25T02:20:20.505Z,96485.97
2022-11-25T02:23:25.602Z,96482.84
2022-11-25T02:25:54.587Z,96471.81
2022-11-25T02:28:31.369Z,96468.63
2022-11-25T02:30:59.004Z,96471.22
2022-11-25T02:33:28.630Z,96465.22
2022-11-25T02:36:15.100Z,96465.00
2022-11-25T02:38:45.438Z,96464.41
2022-11-25T02:41:29.028Z,96473.47
2022-11-25T02:43:55.893Z,96459.22
2022-11-25T02:46:25.732Z,96470.28
2022-11-25T02:49:10.994Z,96469.28
2022-11-25T02:51:40.996Z,96463.22
2022-11-25T02:54:08.191Z,96469.75
2022-11-25T02:56:36.728Z,96477.72
2022-11-25T02:59:04.573Z,96475.53
2022-11-25T03:01:32.115Z,96482.13
2022-11-25T03:03:59.750Z,96479.66
2022-11-25T03:06:26.740Z,96473.72
2022-11-25T03:08:53.620Z,96475.00
2022-11-25T03:11:20.575Z,96473.50
2022-11-25T03:13:47.393Z,96471.34
2022-11-25T03:16:14.241Z,96471.34
2022-11-25T03:18:41.140Z,96463.25
2022-11-25T03:21:07.939Z,96462.03
2022-11-25T03:23:34.757Z,96462.84
2022-11-25T03:26:07.261Z,96466.38
2022-11-25T03:28:34.152Z,96459.84
2022-11-25T03:31:00.961Z,96463.63
2022-11-25T03:33:27.824Z,96475.75
2022-11-25T03:35:54.604Z,96474.47
2022-11-25T03:38:21.418Z,96475.06
2022-11-25T03:40:48.322Z,96479.78
2022-11-25T03:43:15.187Z,96480.94
2022-11-25T03:45:42.020Z,96490.34
2022-11-25T03:48:08.952Z,96482.88
2022-11-25T03:50:35.723Z,96485.06
2022-11-25T03:53:02.494Z,96490.25
2022-11-25T03:55:29.288Z,96478.88
2022-11-25T03:57:56.121Z,96477.03
2022-11-25T04:00:22.953Z,96472.91
2022-11-25T04:02:49.803Z,96479.59
2022-11-25T04:05:16.759Z,96476.13
2022-11-25T04:07:43.721Z,96481.63
2022-11-25T04:10:11.494Z,96488.13
2022-11-25T04:12:47.250Z,96493.31
2022-11-25T04:15:18.697Z,96490.06
2022-11-25T04:17:45.755Z,96492.50
2022-11-25T04:20:14.751Z,96498.34
2022-11-25T04:22:42.188Z,96510.63
2022-11-25T04:25:10.502Z,96499.41
2022-11-25T04:27:37.352Z,96505.94
2022-11-25T04:30:05.989Z,96496.13
2022-11-25T04:32:32.797Z,96499.69
2022-11-25T04:34:59.621Z,96500.94
2022-11-25T04:37:26.460Z,96497.81
2022-11-25T04:39:53.303Z,96495.06
2022-11-25T04:42:31.890Z,96495.06
2022-11-25T04:45:26.418Z,96508.50
2022-11-25T04:47:53.327Z,96508.81
2022-11-25T04:50:23.303Z,96514.28
2022-11-25T04:52:50.596Z,96520.41
2022-11-25T04:55:17.494Z,96517.31
2022-11-25T04:57:44.286Z,96504.78
2022-11-25T05:00:12.064Z,96497.13
2022-11-25T05:02:39.141Z,96503.69
2022-11-25T05:05:06.826Z,96498.41
2022-11-25T05:07:33.838Z,96497.72
2022-11-25T05:10:00.686Z,96496.06
2022-11-25T05:12:29.503Z,96509.72
2022-11-25T05:14:57.002Z,96503.97
2022-11-25T05:17:28.026Z,96498.34
2022-11-25T05:19:54.964Z,96498.22
2022-11-25T05:22:25.804Z,96499.34
2022-11-25T05:24:52.628Z,96497.72
2022-11-25T05:27:20.771Z,96508.94
2022-11-25T05:29:54.282Z,96504.03
2022-11-25T05:32:22.739Z,96503.19
2022-11-25T05:34:49.556Z,96509.34
2022-11-25T05:37:19.913Z,96508.25
2022-11-25T05:39:50.920Z,96507.31
2022-11-25T05:42:17.860Z,96504.84
2022-11-25T05:44:44.666Z,96494.47
2022-11-25T05:47:11.486Z,96494.22
2022-11-25T05:49:38.299Z,96501.75
2022-11-25T05:52:05.262Z,96510.59
2022-11-25T05:54:32.087Z,96505.41
2022-11-25T05:56:58.970Z,96504.63
2022-11-25T05:59:25.768Z,96512.53
2022-11-25T06:01:56.754Z,96514.44
2022-11-25T06:04:23.566Z,96506.94
2022-11-25T06:06:50.377Z,96507.91
2022-11-25T06:09:17.196Z,96505.19
2022-11-25T06:11:44.058Z,96521.53
2022-11-25T06:14:10.841Z,96517.28
2022-11-25T06:16:37.780Z,96505.16
2022-11-25T06:19:06.696Z,96520.44
2022-11-25T06:21:33.835Z,96520.13
2022-11-25T06:24:01.076Z,96522.88
2022-11-25T06:26:27.919Z,96522.47
2022-11-25T06:28:56.343Z,96518.22
2022-11-25T06:31:25.967Z,96522.56
2022-11-25T06:33:54.144Z,96535.94
2022-11-25T06:36:22.527Z,96529.22
2022-11-25T06:38:52.946Z,96528.94
2022-11-25T06:41:21.810Z,96529.06
2022-11-25T06:43:48.631Z,96524.13
2022-11-25T06:46:24.527Z,96529.84
2022-11-25T06:48:53.397Z,96533.13
2022-11-25T06:51:20.442Z,96537.28
2022-11-25T06:53:47.436Z,96522.94
2022-11-25T06:56:24.003Z,96522.59
2022-11-25T06:58:51.846Z,96527.53
2022-11-25T07:01:29.990Z,96522.81
2022-11-25T07:04:03.685Z,96526.25
2022-11-25T07:06:32.116Z,96504.59
2022-11-25T07:08:59.495Z,96511.47
2022-11-25T07:11:33.530Z,96510.72
2022-11-25T07:14:04.859Z,96509.69
2022-11-25T07:16:34.666Z,96515.06
2022-11-25T07:19:02.743Z,96521.88
2022-11-25T07:21:31.856Z,96533.91
2022-11-25T07:24:01.439Z,96536.34
2022-11-25T07:26:32.212Z,96539.03
2022-11-25T07:29:02.042Z,96539.16
2022-11-25T07:31:35.402Z,96544.34
2022-11-25T07:34:13.848Z,96538.22
2022-11-25T07:36:41.803Z,96543.16
2022-11-25T07:39:19.405Z,96551.78
2022-11-25T07:41:49.277Z,96543.53
2022-11-25T07:44:16.387Z,96543.34
2022-11-25T07:46:49.084Z,96543.72
2022-11-25T07:49:22.470Z,96551.78
2022-11-25T07:51:50.659Z,96546.88
2022-11-25T07:54:17.648Z,96554.94
2022-11-25T07:56:45.231Z,96551.34
2022-11-25T07:59:19.055Z,96545.00
2022-11-25T08:01:46.325Z,96543.47
2022-11-25T08:04:19.791Z,96557.81
2022-11-25T08:06:51.502Z,96562.41
2022-11-25T08:09:22.357Z,96558.06
2022-11-25T08:11:49.795Z,96568.41
2022-11-25T08:14:17.762Z,96569.13
2022-11-25T08:16:45.131Z,96577.91
2022-11-25T08:19:16.377Z,96560.69
2022-11-25T08:21:43.898Z,96575.38
2022-11-25T08:24:18.773Z,96560.09
2022-11-25T08:26:45.850Z,96564.53
2022-11-25T08:29:18.687Z,96567.69
2022-11-25T08:31:45.967Z,96570.94
2022-11-25T08:34:31.005Z,96565.81
2022-11-25T08:36:58.339Z,96565.50
2022-11-25T08:42:12.599Z,96570.47
2022-11-25T08:44:39.504Z,96568.66
2022-11-25T08:47:06.476Z,96570.13
2022-11-25T08:49:39.067Z,96575.53
2022-11-25T08:52:07.554Z,96575.53
2022-11-25T08:54:34.386Z,96578.13
2022-11-25T08:57:01.172Z,96589.84
2022-11-25T08:59:28.095Z,96593.13
2022-11-25T09:01:55.458Z,96598.50
2022-11-25T09:04:22.381Z,96600.78
2022-11-25T09:06:49.237Z,96601.94
2022-11-25T09:09:16.088Z,96605.50
2022-11-25T09:11:43.034Z,96613.28
2022-11-25T09:14:09.934Z,96615.22
2022-11-25T09:16:36.997Z,96612.00
2022-11-25T09:19:04.288Z,96620.16
2022-11-25T09:21:31.162Z,96625.97
2022-11-25T09:23:58.113Z,96635.84
2022-11-25T09:26:29.548Z,96638.16
2022-11-25T09:28:56.923Z,96630.09
2022-11-25T09:31:24.466Z,96624.22
2022-11-25T09:33:51.479Z,96628.81
2022-11-25T09:36:20.864Z,96628.06
2022-11-25T09:38:47.785Z,96616.63
2022-11-25T09:41:59.731Z,96620.75
2022-11-25T09:45:13.318Z,96619.25
2022-11-25T09:48:03.338Z,96605.81
2022-11-25T09:51:17.192Z,96613.78
2022-11-25T09:53:57.998Z,96610.06
2022-11-25T09:56:36.396Z,96605.94
2022-11-25T09:59:22.304Z,96616.59
2022-11-25T10:02:23.094Z,96617.91
2022-11-25T10:04:59.620Z,96624.66
2022-11-25T10:07:43.551Z,96613.63
2022-11-25T10:10:41.921Z,96613.34
2022-11-25T10:13:26.732Z,96614.25
2022-11-25T10:15:59.677Z,96611.25
2022-11-25T10:18:39.360Z,96617.28
2022-11-25T10:21:06.471Z,96604.16
2022-11-25T10:23:38.555Z,96610.19
2022-11-25T10:26:17.889Z,96608.41
2022-11-25T10:28:56.216Z,96614.13
2022-11-25T10:31:35.658Z,96608.94
2022-11-25T10:34:36.700Z,96610.03
2022-11-25T10:37:13.036Z,96610.88
2022-11-25T10:39:40.365Z,96592.59
2022-11-25T10:42:21.321Z,96605.13
2022-11-25T10:44:48.119Z,96610.25
2022-11-25T10:47:52.642Z,96598.75
2022-11-25T10:50:48.193Z,96593.59
2022-11-25T10:53:24.750Z,96599.31
2022-11-25T10:56:24.120Z,96598.84
2022-11-25T10:58:50.952Z,96591.88
2022-11-25T11:01:25.585Z,96597.75
2022-11-25T11:04:04.454Z,96601.88
2022-11-25T11:06:46.163Z,96603.00
2022-11-25T11:09:46.028Z,96606.31
2022-11-25T11:12:29.930Z,96603.47
2022-11-25T11:15:21.940Z,96598.63
2022-11-25T11:17:49.293Z,96594.38
2022-11-25T11:20:31.295Z,96596.00
2022-11-25T11:23:14.624Z,96585.59
2022-11-25T11:25:45.271Z,96585.78
2022-11-25T11:28:37.193Z,96588.31
2022-11-25T11:31:10.321Z,96578.09
2022-11-25T11:33:51.815Z,96580.81
2022-11-25T11:37:06.881Z,96575.81
2022-11-25T11:40:01.186Z,96565.25
2022-11-25T11:42:46.765Z,96559.66
2022-11-25T11:45:33.356Z,96572.56
2022-11-25T11:48:16.080Z,96589.63
2022-11-25T11:50:46.256Z,96588.28
2022-11-25T11:53:31.140Z,96584.59
2022-11-25T11:56:35.748Z,96587.41
2022-11-25T11:59:25.881Z,96588.31
2022-11-25T12:02:21.820Z,96590.75
2022-11-25T12:05:25.999Z,96586.16
2022-11-25T12:08:16.138Z,96604.34
2022-11-25T12:10:55.377Z,96590.41
2022-11-25T12:14:00.686Z,96583.16
2022-11-25T12:16:36.472Z,96586.06
2022-11-25T12:19:44.659Z,96583.06
2022-11-25T12:22:19.060Z,96571.72
2022-11-25T12:24:54.207Z,96565.16
2022-11-25T12:27:24.523Z,96571.06
2022-11-25T12:31:04.737Z,96572.56
2022-11-25T12:34:27.617Z,96573.22
2022-11-25T12:37:15.135Z,96563.72
2022-11-25T12:39:57.287Z,96576.97
2022-11-25T12:42:26.176Z,96569.00
2022-11-25T12:44:59.213Z,96560.69
2022-11-25T12:47:26.992Z,96562.00
2022-11-25T12:49:55.889Z,96567.06
2022-11-25T12:52:46.718Z,96569.53
2022-11-25T12:55:20.946Z,96567.88
2022-11-25T12:58:02.940Z,96576.00
2022-11-25T13:01:09.622Z,96577.13
2022-11-25T13:04:17.166Z,96580.09
2022-11-25T13:07:11.644Z,96580.78
2022-11-25T13:10:39.737Z,96571.97
2022-11-25T13:13:31.613Z,96574.09
2022-11-25T13:16:02.018Z,96577.03
2022-11-25T13:18:33.264Z,96567.13
2022-11-25T13:21:12.465Z,96565.53
2022-11-25T13:23:50.341Z,96573.84
2022-11-25T13:26:29.589Z,96582.50
2022-11-25T13:28:57.394Z,96579.13
2022-11-25T13:31:31.390Z,96582.53
2022-11-25T13:33:58.109Z,96578.59
2022-11-25T13:36:44.341Z,96585.25
2022-11-25T13:39:18.504Z,96592.59
2022-11-25T13:42:01.470Z,96591.44
2022-11-25T13:44:50.420Z,96599.34
2022-11-25T13:47:46.528Z,96598.31
2022-11-25T13:50:21.691Z,96599.53
2022-11-25T13:53:24.669Z,96597.50
2022-11-25T13:55:55.005Z,96603.59
2022-11-25T13:58:33.129Z,96599.53
2022-11-25T14:01:24.835Z,96599.53
2022-11-25T14:04:00.354Z,96601.59
2022-11-25T14:07:04.071Z,96601.16
2022-11-25T14:10:04.749Z,96608.88
2022-11-25T14:13:01.516Z,96604.03
2022-11-25T14:15:43.132Z,96607.06
2022-11-25T14:18:31.487Z,96604.41
2022-11-25T14:21:32.744Z,96618.16
2022-11-25T14:24:43.909Z,96618.16
2022-11-25T14:27:19.376Z,96623.41
2022-11-25T14:30:07.244Z,96618.97
2022-11-25T14:32:59.664Z,96628.06
2022-11-25T14:35:45.701Z,96633.13
2022-11-25T14:38:23.341Z,96635.13
2022-11-25T14:41:00.179Z,96636.34
2022-11-25T14:43:29.002Z,96638.34
2022-11-25T14:46:20.736Z,96650.50
2022-11-25T14:49:00.867Z,96652.84
2022-11-25T14:51:37.035Z,96658.09
2022-11-25T14:54:08.449Z,96655.25
2022-11-25T14:56:37.003Z,96651.78
2022-11-25T14:59:04.201Z,96661.25
2022-11-25T15:01:34.640Z,96660.41
2022-11-25T15:04:24.178Z,96669.28
2022-11-25T15:06:53.620Z,96675.06
2022-11-25T15:09:28.318Z,96683.25
2022-11-25T15:12:02.497Z,96689.91
2022-11-25T15:14:39.349Z,96687.28
2022-11-25T15:17:30.947Z,96686.41
2022-11-25T15:20:12.039Z,96692.03
2022-11-25T15:22:39.182Z,96691.56
2022-11-25T15:25:14.807Z,96695.06
2022-11-25T15:27:59.872Z,96695.81
2022-11-25T15:30:31.880Z,96705.97
2022-11-25T15:32:59.210Z,96707.84
2022-11-25T15:35:27.531Z,96711.84
2022-11-25T15:37:54.529Z,96708.19
2022-11-25T15:40:33.820Z,96717.81
2022-11-25T15:43:04.468Z,96723.78
2022-11-25T15:45:44.613Z,96720.78
2022-11-25T15:48:29.707Z,96734.91
2022-11-25T15:51:31.560Z,96737.28
2022-11-25T15:54:12.842Z,96738.09
2022-11-25T15:56:53.368Z,96741.28
2022-11-25T15:59:45.840Z,96745.16
2022-11-25T16:02:34.122Z,96746.53
2022-11-25T16:05:15.315Z,96753.16
2022-11-25T16:07:51.563Z,96750.88
2022-11-25T16:10:50.202Z,96757.03
2022-11-25T16:13:37.867Z,96759.00
2022-11-25T16:16:07.742Z,96772.31
2022-11-25T16:18:52.625Z,96766.63
2022-11-25T16:21:36.666Z,96778.22
2022-11-25T16:24:06.418Z,96778.78
2022-11-25T16:26:48.458Z,96773.69
2022-11-25T16:29:27.945Z,96779.94
2022-11-25T16:31:54.844Z,96781.47
2022-11-25T16:34:24.246Z,96790.53
2022-11-25T16:36:51.035Z,96799.22
2022-11-25T16:39:17.863Z,96795.97
2022-11-25T16:41:55.944Z,96795.97
2022-11-25T16:44:25.554Z,96796.31
2022-11-25T16:46:53.301Z,96806.84
2022-11-25T16:49:22.551Z,96816.06
2022-11-25T16:51:51.063Z,96812.38
2022-11-25T16:54:23.832Z,96824.03
2022-11-25T16:56:54.388Z,96811.88
2022-11-25T16:59:31.857Z,96818.78
2022-11-25T17:02:01.363Z,96824.03
2022-11-25T17:04:29.284Z,96829.38
2022-11-25T17:07:30.957Z,96830.56
2022-11-25T17:09:45.039Z,96837.25
2022-11-25T17:12:24.999Z,96834.09
2022-11-25T17:14:52.814Z,96835.25
2022-11-25T17:17:24.832Z,96855.91
2022-11-25T17:19:53.371Z,96861.16
2022-11-25T17:22:24.532Z,96855.91
2022-11-25T17:24:51.925Z,96862.75
2022-11-25T17:27:31.827Z,96860.78
2022-11-25T17:30:03.538Z,96867.66
2022-11-25T17:32:31.303Z,96868.56
2022-11-25T17:34:58.135Z,96874.19
2022-11-25T17:37:25.786Z,96883.41
2022-11-25T17:39:53.649Z,96884.13
2022-11-25T17:42:31.221Z,96891.72
2022-11-25T17:44:58.621Z,96896.97
2022-11-25T17:47:25.594Z,96898.13
2022-11-25T17:49:53.206Z,96905.00
2022-11-25T17:52:20.480Z,96899.66
2022-11-25T17:54:47.321Z,96899.66
2022-11-25T17:57:21.568Z,96904.91
2022-11-25T17:59:48.529Z,96904.66
2022-11-25T18:02:21.254Z,96908.88
2022-11-25T18:04:48.943Z,96906.31
2022-11-25T18:07:16.030Z,96910.38
2022-11-25T18:09:44.304Z,96914.47
2022-11-25T18:12:36.661Z,96914.47
2022-11-25T18:15:08.233Z,96924.63
2022-11-25T18:17:37.899Z,96926.94
2022-11-25T18:20:21.103Z,96935.63
2022-11-25T18:22:48.905Z,96936.16
2022-11-25T18:25:18.964Z,96938.13
2022-11-25T18:27:46.802Z,96935.78
2022-11-25T18:30:24.386Z,96933.34
2022-11-25T18:32:51.573Z,96943.81
2022-11-25T18:35:22.395Z,96952.22
2022-11-25T18:37:49.302Z,96964.41
2022-11-25T18:40:16.608Z,96951.81
2022-11-25T18:42:47.613Z,96960.00
2022-11-25T18:45:28.718Z,96969.22
2022-11-25T18:47:55.601Z,96965.47
2022-11-25T18:50:26.613Z,96965.31
2022-11-25T18:52:53.929Z,96979.09
2022-11-25T18:55:23.105Z,96971.88
2022-11-25T18:57:51.939Z,96983.34
2022-11-25T19:00:33.547Z,96988.91
2022-11-25T19:03:00.987Z,96989.88
2022-11-25T19:05:33.806Z,96986.28
2022-11-25T19:08:02.037Z,96995.19
2022-11-25T19:10:35.870Z,96995.84
2022-11-25T19:13:08.139Z,96991.63
2022-11-25T19:15:37.444Z,96996.38
2022-11-25T19:18:06.897Z,96989.69
2022-11-25T19:20:33.804Z,97004.09
2022-11-25T19:23:17.038Z,97009.34
2022-11-25T19:25:44.838Z,97007.06
2022-11-25T19:28:13.627Z,97007.38
2022-11-25T19:30:40.738Z,97018.84
2022-11-25T19:33:37.263Z,97031.94
2022-11-25T19:36:06.098Z,97039.47
2022-11-25T19:38:34.833Z,97037.50
2022-11-25T19:41:01.823Z,97042.41
2022-11-25T19:43:28.765Z,97030.63
2022-11-25T19:45:57.305Z,97052.53
2022-11-25T19:48:27.061Z,97051.88
2022-11-25T19:50:59.463Z,97052.72
2022-11-25T19:53:33.125Z,97061.69
2022-11-25T19:56:03.891Z,97063.97
2022-11-25T19:58:31.476Z,97076.38
2022-11-25T20:01:05.821Z,97085.84
2022-11-25T20:03:33.172Z,97077.97
2022-11-25T20:05:59.993Z,97083.53
2022-11-25T20:08:28.868Z,97099.84
2022-11-25T20:10:57.464Z,97103.09
2022-11-25T20:13:25.882Z,97106.03
2022-11-25T20:15:55.765Z,97108.09
2022-11-25T20:18:25.388Z,97109.84
2022-11-25T20:21:04.371Z,97118.56
2022-11-25T20:23:43.268Z,97122.75
2022-11-25T20:26:23.371Z,97126.19
2022-11-25T20:28:50.229Z,97123.69
2022-11-25T20:31:17.143Z,97129.75
2022-11-25T20:33:43.969Z,97126.75
2022-11-25T20:36:16.184Z,97137.38
2022-11-25T20:38:48.812Z,97133.13
2022-11-25T20:41:16.467Z,97149.75
2022-11-25T20:43:47.551Z,97144.38
2022-11-25T20:46:22.807Z,97146.31
2022-11-25T20:48:54.382Z,97164.09
2022-11-25T20:51:22.843Z,97163.44
2022-11-25T20:53:57.646Z,97174.16
2022-11-25T20:56:26.587Z,97178.78
2022-11-25T20:58:54.325Z,97177.66
2022-11-25T21:01:21.537Z,97181.47
2022-11-25T21:03:50.409Z,97201.75
2022-11-25T21:06:22.004Z,97197.88
2022-11-25T21:08:52.228Z,97201.81
2022-11-25T21:11:20.509Z,97208.09
2022-11-25T21:13:48.219Z,97209.34
2022-11-25T21:16:15.484Z,97218.41
2022-11-25T21:18:43.288Z,97220.78
2022-11-25T21:21:33.402Z,97229.34
2022-11-25T21:24:15.829Z,97229.97
2022-11-25T21:26:42.680Z,97239.44
2022-11-25T21:29:16.576Z,97244.78
2022-11-25T21:31:43.880Z,97242.81
2022-11-25T21:34:13.640Z,97248.34
2022-11-25T21:36:41.931Z,97244.78
2022-11-25T21:39:27.072Z,97252.97
2022-11-25T21:41:54.649Z,97253.38
2022-11-25T21:44:31.080Z,97253.88
2022-11-25T21:46:58.415Z,97254.41
2022-11-25T21:49:26.695Z,97257.06
2022-11-25T21:51:53.618Z,97258.25
2022-11-25T21:54:20.546Z,97257.81
2022-11-25T21:56:47.462Z,97260.72
2022-11-25T21:59:20.088Z,97260.34
2022-11-25T22:01:47.765Z,97261.31
2022-11-25T22:04:19.633Z,97263.28
2022-11-25T22:06:47.978Z,97255.13
2022-11-25T22:09:14.824Z,97267.53
2022-11-25T22:11:50.337Z,97267.22
2022-11-25T22:14:29.021Z,97278.38
2022-11-25T22:16:56.899Z,97271.78
2022-11-25T22:19:26.710Z,97278.53
2022-11-25T22:21:54.562Z,97273.09
2022-11-25T22:24:22.131Z,97273.91
2022-11-25T22:26:57.675Z,97280.59
2022-11-25T22:29:31.834Z,97288.78
2022-11-25T22:31:58.787Z,97284.50
2022-11-25T22:34:25.798Z,97285.19
2022-11-25T22:36:52.690Z,97290.22
2022-11-25T22:39:25.654Z,97293.13
2022-11-25T22:42:09.617Z,97299.16
2022-11-25T22:44:43.288Z,97295.94
2022-11-25T22:47:32.602Z,97311.34
2022-11-25T22:50:03.495Z,97309.97
2022-11-25T22:52:33.866Z,97311.34
2022-11-25T22:55:31.772Z,97304.13
2022-11-25T22:58:01.041Z,97306.94
2022-11-25T23:00:32.983Z,97299.22
2022-11-25T23:03:03.204Z,97304.97
2022-11-25T23:05:34.167Z,97305.28
2022-11-25T23:08:11.693Z,97303.63
2022-11-25T23:10:38.521Z,97312.44
2022-11-25T23:13:05.368Z,97315.22
2022-11-25T23:15:32.211Z,97309.16
2022-11-25T23:18:01.876Z,97310.94
2022-11-25T23:20:37.699Z,97311.03
2022-11-25T23:23:21.113Z,97314.16
2022-11-25T23:25:48.909Z,97317.00
2022-11-25T23:28:16.458Z,97318.94
2022-11-25T23:30:55.550Z,97320.16
2022-11-25T23:33:37.928Z,97330.41
2022-11-25T23:36:44.634Z,97326.59
2022-11-25T23:39:19.986Z,97322.09
2022-11-25T23:41:47.340Z,97324.34
2022-11-25T23:44:36.497Z,97311.53
2022-11-25T23:47:06.488Z,97316.75
2022-11-25T23:49:44.349Z,97322.00
2022-11-25T23:52:16.032Z,97317.78
2022-11-25T23:54:47.895Z,97321.66
2022-11-25T23:57:22.817Z,97329.81
2022-11-25T23:59:50.561Z,97337.34
